Stoney Creek, Canada
Current Conditions -  °F | °C
As of 8:00 PM on Saturday 25 Oct 2014 (Local Time) from CYHM Reporting Station
Few Clouds Few Clouds  
Wind Chill: 50°   Ceiling: Unl
Heat Index: 50°   Visibility: 15mi
Dew Point: 43°   Wind: 9mph
Humidity: 76%   Direction: 220°SW
Pressure: 29.63"   Gusts: NA
Location:  43.21°N, 79.69°W
Report Text: CYHM 260000Z 22008KT 15SM FEW050 FEW080 10/06 A2963 RMK SC1AC1 AC TR SLP035
Loading
Personal Weather Stations






























Interactive Weather Map
Tropical Storm Tracking
New forecast layout! Learn more

10-Day Weather Forecast

Advertisements
Track Severe Weather on mobile